Time;durP1;ratioP1;P1;durP2;ratioP2;P2;SDS_P1;SDS_P2;PMS_P1;PMS_P2;Temp;Humidity;BMP_temperature;BMP_pressure;BME280_temperature;BME280_humidity;BME280_pressure;Samples;Min_cycle;Max_cycle;Signal;HPM_P1;HPM_P2
2023/07/08 00:02:34;;;;;;;7.10;4.80;;;;;;;17.69;55.89;100742.28;30860554;28;108219;-76
2023/07/08 00:17:35;;;;;;;10.48;5.43;;;;;;;16.69;57.51;100738.09;30860221;28;114322;-77
2023/07/08 00:32:41;;;;;;;8.93;5.93;;;;;;;16.16;58.93;100730.47;30857849;28;97519;-77
2023/07/08 00:47:42;;;;;;;7.90;4.80;;;;;;;15.75;60.38;100739.16;30857884;28;96645;-76
2023/07/08 01:02:52;;;;;;;10.53;5.83;;;;;;;15.39;61.79;100730.09;30855766;28;96729;-76
2023/07/08 01:17:53;;;;;;;11.10;6.33;;;;;;;15.05;63.11;100725.34;30855052;28;96856;-77
2023/07/08 01:33:01;;;;;;;12.83;6.20;;;;;;;14.75;63.95;100717.31;30853502;28;97628;-77
2023/07/08 01:48:19;;;;;;;8.83;6.47;;;;;;;14.47;65.17;100720.56;30855141;28;96674;-76
2023/07/08 02:03:20;;;;;;;8.00;6.60;;;;;;;14.22;66.14;100720.78;30873031;28;96738;-75
2023/07/08 02:18:20;;;;;;;8.03;6.23;;;;;;;13.97;67.05;100720.19;30871020;28;96721;-78
2023/07/08 02:33:27;;;;;;;10.85;7.30;;;;;;;13.84;67.97;100722.63;30868462;28;96802;-76
2023/07/08 02:48:27;;;;;;;13.83;8.10;;;;;;;13.70;68.42;100709.00;30868136;28;96790;-75
2023/07/08 03:03:31;;;;;;;9.65;7.00;;;;;;;13.69;68.79;100707.31;30866143;28;113563;-76
2023/07/08 03:18:31;;;;;;;9.57;6.90;;;;;;;13.75;69.05;100712.97;30864332;28;96612;-76
2023/07/08 03:33:32;;;;;;;10.85;6.93;;;;;;;13.96;69.16;100726.53;30862465;28;96662;-76
2023/07/08 03:48:32;;;;;;;12.98;6.93;;;;;;;14.20;68.93;100727.34;30859861;28;96583;-77
2023/07/08 04:03:33;;;;;;;10.48;7.45;;;;;;;14.45;68.72;100717.25;30859473;28;97899;-77
2023/07/08 04:18:33;;;;;;;9.48;7.00;;;;;;;14.82;68.57;100726.25;30857074;28;102717;-76
2023/07/08 04:33:33;;;;;;;11.10;7.38;;;;;;;15.27;68.44;100711.97;30855340;28;114719;-76
2023/07/08 04:48:33;;;;;;;8.65;6.57;;;;;;;15.75;67.96;100709.59;30854417;28;96634;-77
2023/07/08 05:03:34;;;;;;;9.40;6.53;;;;;;;16.27;66.77;100704.09;30852649;28;98820;-76
2023/07/08 05:18:34;;;;;;;10.75;6.85;;;;;;;16.86;66.42;100711.69;30851744;28;109854;-77
2023/07/08 05:33:34;;;;;;;9.57;5.55;;;;;;;17.53;65.51;100714.69;30868729;28;96636;-78
2023/07/08 05:48:35;;;;;;;7.18;5.25;;;;;;;18.28;64.43;100711.06;30871189;28;96632;-74
2023/07/08 06:03:37;;;;;;;6.60;5.03;;;;;;;19.10;63.15;100722.31;30870923;28;96676;-74
2023/07/08 06:18:37;;;;;;;6.50;4.17;;;;;;;19.94;61.22;100706.06;30868535;28;97805;-75
2023/07/08 06:33:38;;;;;;;4.95;3.30;;;;;;;20.87;57.83;100713.53;30858910;28;96965;-72
2023/07/08 06:48:38;;;;;;;7.13;3.70;;;;;;;21.93;55.26;100713.19;30858290;28;110206;-67
2023/07/08 07:03:41;;;;;;;6.57;3.30;;;;;;;22.72;51.78;100718.31;30853638;28;107192;-67
2023/07/08 07:18:41;;;;;;;4.67;3.20;;;;;;;23.71;48.81;100718.38;30851684;28;97130;-69
2023/07/08 07:33:41;;;;;;;4.55;3.13;;;;;;;24.62;45.78;100729.13;30811309;28;1166942;-69
2023/07/08 07:48:42;;;;;;;3.60;2.40;;;;;;;25.42;42.13;100726.03;30858846;28;96728;-69
2023/07/08 08:03:42;;;;;;;5.20;2.70;;;;;;;25.80;36.92;100713.31;30857882;28;97406;-69
2023/07/08 08:18:42;;;;;;;3.72;2.20;;;;;;;26.58;33.95;100722.91;30856677;28;96596;-68
2023/07/08 08:33:43;;;;;;;5.03;2.42;;;;;;;27.22;32.98;100714.75;30854630;28;100736;-69
2023/07/08 08:49:22;;;;;;;3.35;2.05;;;;;;;28.26;30.79;100708.31;30853563;28;96654;-67
2023/07/08 09:04:32;;;;;;;2.57;1.70;;;;;;;28.65;28.92;100700.28;30835965;28;97116;-69
2023/07/08 09:19:40;;;;;;;2.67;1.70;;;;;;;29.10;27.19;100705.03;30853242;28;97132;-68
2023/07/08 09:34:56;;;;;;;2.40;1.63;;;;;;;29.27;26.64;100689.03;30851548;28;98311;-68
2023/07/08 09:49:57;;;;;;;3.30;2.20;;;;;;;30.35;25.35;100674.41;30849765;28;96888;-68
2023/07/08 10:05:13;;;;;;;3.50;2.17;;;;;;;31.17;24.40;100667.13;30848938;28;97240;-68
2023/07/08 10:20:13;;;;;;;3.90;2.30;;;;;;;31.52;23.32;100669.59;30865822;28;96732;-70
2023/07/08 10:35:18;;;;;;;3.85;1.77;;;;;;;31.87;23.19;100640.66;30867707;28;97167;-71
2023/07/08 10:50:18;;;;;;;4.60;1.90;;;;;;;33.20;22.12;100650.16;30865568;28;97186;-71
2023/07/08 11:05:31;;;;;;;5.40;2.00;;;;;;;33.18;21.70;100633.06;30864666;28;97487;-73
2023/07/08 11:20:37;;;;;;;7.00;1.97;;;;;;;34.26;21.12;100626.75;30859669;28;96872;-72
2023/07/08 11:35:48;;;;;;;5.70;1.80;;;;;;;34.44;20.17;100615.78;30860713;28;96929;-69
2023/07/08 11:50:51;;;;;;;4.47;2.00;;;;;;;34.50;19.57;100620.00;30859320;28;96732;-70
2023/07/08 12:05:51;;;;;;;5.70;2.10;;;;;;;34.59;19.42;100604.25;30858621;28;97525;-69
2023/07/08 12:20:57;;;;;;;3.78;2.00;;;;;;;34.13;19.62;100583.44;30856188;28;96865;-68
2023/07/08 12:36:00;;;;;;;2.60;1.80;;;;;;;34.41;19.29;100578.50;30855070;28;97363;-69
2023/07/08 12:51:04;;;;;;;2.17;1.53;;;;;;;34.13;19.16;100570.44;30854541;28;97539;-68
2023/07/08 13:06:04;;;;;;;5.20;1.93;;;;;;;32.71;19.77;100558.84;30853345;28;96745;-68
2023/07/08 13:21:07;;;;;;;4.45;1.75;;;;;;;32.62;20.15;100535.84;30853301;28;96701;-68
2023/07/08 13:36:09;;;;;;;2.53;1.67;;;;;;;32.24;20.31;100527.84;30851170;28;96705;-68
2023/07/08 13:51:22;;;;;;;5.73;2.13;;;;;;;31.85;20.54;100516.22;30861818;28;96844;-68
2023/07/08 14:06:25;;;;;;;4.17;2.00;;;;;;;31.92;21.34;100510.31;30870234;28;96749;-68
2023/07/08 14:21:25;;;;;;;3.27;1.90;;;;;;;32.01;21.31;100508.47;30866914;28;97600;-69
2023/07/08 14:36:26;;;;;;;5.35;2.10;;;;;;;31.95;20.99;100503.38;30868391;28;97144;-68
2023/07/08 14:51:26;;;;;;;3.42;2.20;;;;;;;31.68;20.99;100494.78;30866453;28;108791;-68
2023/07/08 15:06:27;;;;;;;3.80;2.05;;;;;;;31.31;20.90;100485.53;30861034;28;116772;-68
2023/07/08 15:21:27;;;;;;;4.53;2.37;;;;;;;31.41;21.12;100489.22;30861061;28;97263;-67
2023/07/08 15:36:28;;;;;;;3.20;1.90;;;;;;;31.14;21.38;100486.13;30859992;28;113044;-69
2023/07/08 15:51:29;;;;;;;5.15;2.45;;;;;;;30.97;21.74;100472.88;30860956;28;96797;-68
2023/07/08 16:06:29;;;;;;;3.75;2.30;;;;;;;30.53;22.12;100469.44;30859208;28;96773;-68
2023/07/08 16:21:29;;;;;;;2.78;1.90;;;;;;;30.14;22.67;100469.69;30856613;28;104301;-67
2023/07/08 16:36:30;;;;;;;3.33;2.10;;;;;;;29.94;23.18;100474.34;30856350;28;97288;-68
2023/07/08 16:51:31;;;;;;;4.07;2.17;;;;;;;29.65;23.85;100472.47;30853367;28;97812;-69
2023/07/08 17:06:31;;;;;;;4.33;2.40;;;;;;;29.49;24.43;100477.28;30851580;28;96769;-69
2023/07/08 17:21:32;;;;;;;3.72;2.00;;;;;;;29.15;24.75;100466.38;30858141;28;97355;-69
2023/07/08 17:36:36;;;;;;;4.22;2.47;;;;;;;28.80;25.68;100465.56;30872286;28;106860;-68
2023/07/08 17:51:38;;;;;;;4.70;2.10;;;;;;;28.30;26.20;100452.69;30872370;28;96728;-68
2023/07/08 18:06:38;;;;;;;5.37;2.80;;;;;;;27.89;26.45;100452.88;30871300;28;97534;-70
2023/07/08 18:21:39;;;;;;;5.88;2.90;;;;;;;27.35;27.38;100459.81;30869448;28;97381;-68
2023/07/08 18:36:40;;;;;;;5.80;3.22;;;;;;;26.81;28.60;100456.59;30868034;28;97480;-68
2023/07/08 18:51:42;;;;;;;15.43;6.93;;;;;;;26.19;30.01;100461.09;30867314;28;97385;-68
2023/07/08 19:06:43;;;;;;;13.43;5.93;;;;;;;25.60;32.25;100471.19;30865403;28;96689;-68
2023/07/08 19:21:43;;;;;;;5.35;2.95;;;;;;;25.01;34.18;100488.44;30862882;28;109076;-67
2023/07/08 19:36:44;;;;;;;6.55;3.75;;;;;;;24.40;36.05;100494.91;30861537;28;96884;-68
2023/07/08 19:51:44;;;;;;;10.88;4.53;;;;;;;23.80;37.71;100493.84;30857982;28;110726;-68
2023/07/08 20:06:45;;;;;;;14.20;9.50;;;;;;;23.28;39.56;100503.97;30858613;28;96810;-68
2023/07/08 20:21:45;;;;;;;15.52;7.82;;;;;;;22.88;40.61;100507.63;30857757;28;99982;-67
2023/07/08 20:36:46;;;;;;;;;;;;;;;22.61;41.26;100520.97;30857122;28;111459;-69
2023/07/08 20:51:46;;;;;;;8.83;4.77;;;;;;;22.37;40.93;100520.22;30856836;28;96710;-70
2023/07/08 21:06:46;;;;;;;6.23;5.30;;;;;;;21.74;42.90;100512.59;30854222;28;110793;-68
2023/07/08 21:21:47;;;;;;;12.67;4.90;;;;;;;21.40;43.39;100522.38;30853175;28;110000;-68
2023/07/08 21:36:49;;;;;;;13.10;6.17;;;;;;;21.11;45.48;100535.75;30853900;28;97272;-67
2023/07/08 21:51:49;;;;;;;22.47;7.63;;;;;;;20.80;46.60;100534.94;30852944;28;96848;-70
2023/07/08 22:06:50;;;;;;;10.93;6.23;;;;;;;20.50;46.92;100541.13;30854787;28;96805;-71
2023/07/08 22:21:50;;;;;;;10.03;6.33;;;;;;;20.15;47.66;100547.16;30870545;28;96707;-70
2023/07/08 22:36:50;;;;;;;13.37;6.50;;;;;;;19.86;48.52;100537.88;30869696;28;96839;-71
2023/07/08 22:51:55;;;;;;;8.27;5.32;;;;;;;19.65;49.35;100539.09;30868217;28;98886;-70
2023/07/08 23:06:56;;;;;;;9.53;6.03;;;;;;;19.43;50.32;100531.41;30866813;28;96778;-66
2023/07/08 23:21:56;;;;;;;9.73;5.65;;;;;;;19.18;51.51;100534.09;30864811;28;97448;-69
2023/07/08 23:37:02;;;;;;;7.82;5.63;;;;;;;19.16;51.62;100536.16;30863486;28;111867;-67
2023/07/08 23:52:03;;;;;;;11.07;7.20;;;;;;;19.03;52.89;100531.69;30862277;28;96699;-67
